Time;durP1;ratioP1;P1;durP2;ratioP2;P2;SDS_P1;SDS_P2;PMS_P1;PMS_P2;Temp;Humidity;BMP_temperature;BMP_pressure;BME280_temperature;BME280_humidity;BME280_pressure;Samples;Min_cycle;Max_cycle;Signal;HPM_P1;HPM_P2
2022/01/28 00:02:26;;;;;;;;;;;2.40;97.60;;;;;;5066129;28;19939;-69
2022/01/28 00:04:54;;;;;;;;;;;2.40;97.70;;;;;;5064259;28;19929;-68
2022/01/28 00:07:21;;;;;;;;;;;2.40;97.60;;;;;;5060030;28;20015;-69
2022/01/28 00:09:48;;;;;;;;;;;2.40;97.60;;;;;;5063405;28;20513;-68
2022/01/28 00:12:15;;;;;;;;;;;2.40;97.60;;;;;;5061472;28;20392;-69
2022/01/28 00:14:47;;;;;;;;;;;2.40;97.70;;;;;;5064362;28;19936;-69
2022/01/28 00:17:45;;;;;;;;;;;2.40;97.70;;;;;;5062726;28;19928;-69
2022/01/28 00:37:00;;;;;;;;;;;2.50;97.70;;;;;;5068051;28;20446;-70
2022/01/28 00:39:28;;;;;;;;;;;2.50;97.70;;;;;;5061029;28;19928;-70
2022/01/28 00:41:55;;;;;;;;;;;2.50;97.70;;;;;;5067488;28;20354;-71
2022/01/28 00:44:21;;;;;;;;;;;2.50;97.70;;;;;;5064090;28;20400;-69
2022/01/28 00:46:48;;;;;;;;;;;2.50;97.70;;;;;;5064677;28;19981;-68
2022/01/28 00:49:15;;;;;;;;;;;2.40;97.70;;;;;;5061753;28;19944;-70
2022/01/28 00:51:41;;;;;;;;;;;2.50;97.70;;;;;;5062374;28;19939;-69
2022/01/28 00:54:08;;;;;;;;;;;2.50;97.70;;;;;;5062370;28;19932;-69
2022/01/28 00:56:35;;;;;;;;;;;2.50;97.70;;;;;;5065394;28;19928;-72
2022/01/28 00:59:02;;;;;;;;;;;2.50;97.70;;;;;;5060893;28;19986;-69
2022/01/28 01:01:29;;;;;;;;;;;2.50;97.80;;;;;;5064242;28;19935;-69
2022/01/28 01:03:56;;;;;;;;;;;2.50;97.80;;;;;;5058038;28;19929;-70
2022/01/28 01:06:22;;;;;;;;;;;2.50;97.80;;;;;;5063840;28;19928;-69
2022/01/28 01:08:49;;;;;;;;;;;2.50;97.80;;;;;;5066372;28;19928;-69
2022/01/28 01:11:19;;;;;;;;;;;2.50;97.80;;;;;;5062517;28;19946;-69
2022/01/28 01:13:47;;;;;;;;;;;2.50;97.80;;;;;;5063082;28;19929;-69
2022/01/28 01:16:17;;;;;;;;;;;2.50;97.80;;;;;;5063508;28;19928;-68
2022/01/28 01:18:50;;;;;;;;;;;2.50;97.80;;;;;;5059729;28;19928;-69
2022/01/28 01:21:21;;;;;;;;;;;2.50;97.80;;;;;;5069518;28;19928;-68
2022/01/28 01:23:51;;;;;;;;;;;2.50;97.80;;;;;;5063038;28;19928;-68
2022/01/28 01:26:18;;;;;;;;;;;2.50;97.80;;;;;;5062506;28;19929;-69
2022/01/28 01:28:47;;;;;;;;;;;2.50;97.80;;;;;;5065559;28;19929;-68
2022/01/28 01:31:18;;;;;;;;;;;2.50;97.90;;;;;;5066681;28;20516;-70
2022/01/28 01:33:49;;;;;;;;;;;2.50;97.90;;;;;;5064113;28;19928;-69
2022/01/28 01:36:15;;;;;;;;;;;2.50;97.90;;;;;;5070166;28;19994;-69
2022/01/28 01:38:43;;;;;;;;;;;2.50;97.90;;;;;;5073347;28;19933;-69
2022/01/28 01:41:14;;;;;;;;;;;2.50;97.90;;;;;;5074106;28;19928;-68
2022/01/28 01:43:53;;;;;;;;;;;2.50;97.80;;;;;;5069291;28;20011;-69
2022/01/28 01:46:30;;;;;;;;;;;2.50;97.80;;;;;;5065718;28;20304;-69
2022/01/28 01:54:25;;;;;;;;;;;2.50;97.80;;;;;;5066235;28;19951;-68
2022/01/28 01:56:53;;;;;;;;;;;2.50;97.80;;;;;;5067463;28;19935;-69
2022/01/28 01:59:20;;;;;;;;;;;2.50;97.80;;;;;;5065840;28;19974;-69
2022/01/28 02:01:48;;;;;;;;;;;2.50;97.80;;;;;;5066407;28;19928;-69
2022/01/28 02:04:14;;;;;;;;;;;2.50;97.80;;;;;;5064638;28;19932;-68
2022/01/28 02:06:41;;;;;;;;;;;2.50;98.00;;;;;;5066867;28;20293;-69
2022/01/28 02:09:08;;;;;;;;;;;2.50;97.80;;;;;;5072851;28;19925;-68
2022/01/28 02:11:35;;;;;;;;;;;2.50;97.80;;;;;;5074624;28;20314;-70
2022/01/28 02:14:02;;;;;;;;;;;2.50;97.90;;;;;;5069099;28;19936;-68
2022/01/28 02:16:28;;;;;;;;;;;2.60;97.90;;;;;;5065724;28;19929;-69
2022/01/28 02:18:57;;;;;;;;;;;2.50;97.90;;;;;;5067926;28;19928;-71
2022/01/28 02:21:25;;;;;;;;;;;2.60;98.00;;;;;;5070508;28;19939;-68
2022/01/28 02:23:57;;;;;;;;;;;2.60;98.00;;;;;;5067078;28;19928;-69
2022/01/28 02:26:23;;;;;;;;;;;2.50;98.00;;;;;;5067055;28;20280;-68
2022/01/28 02:28:54;;;;;;;;;;;2.60;98.00;;;;;;5067900;28;19932;-69
2022/01/28 02:31:23;;;;;;;;;;;2.60;98.10;;;;;;5070814;28;19936;-68
2022/01/28 02:33:51;;;;;;;;;;;2.60;98.10;;;;;;5063862;28;20041;-68
2022/01/28 02:36:18;;;;;;;;;;;2.60;98.10;;;;;;5071661;28;19975;-67
2022/01/28 02:38:46;;;;;;;;;;;2.50;98.10;;;;;;5072975;28;19932;-69
2022/01/28 02:41:12;;;;;;;;;;;2.60;98.10;;;;;;5070525;28;19935;-70
2022/01/28 02:43:48;;;;;;;;;;;2.60;98.10;;;;;;5068779;28;19928;-69
2022/01/28 02:46:15;;;;;;;;;;;2.60;98.10;;;;;;5064380;28;19943;-68
2022/01/28 02:48:55;;;;;;;;;;;2.60;98.10;;;;;;5062421;28;19928;-68
2022/01/28 02:51:23;;;;;;;;;;;2.60;98.10;;;;;;5067533;28;19968;-69
2022/01/28 02:53:54;;;;;;;;;;;2.60;98.10;;;;;;5062106;28;20007;-70
2022/01/28 02:56:24;;;;;;;;;;;2.60;98.10;;;;;;5063441;28;19943;-68
2022/01/28 02:58:51;;;;;;;;;;;2.60;98.20;;;;;;5060024;28;19935;-69
2022/01/28 03:01:19;;;;;;;;;;;2.60;98.50;;;;;;5068305;28;19936;-70
2022/01/28 03:03:46;;;;;;;;;;;2.60;98.20;;;;;;5060331;28;19929;-68
2022/01/28 03:06:14;;;;;;;;;;;2.60;98.20;;;;;;5072708;28;19935;-68
2022/01/28 03:08:43;;;;;;;;;;;2.60;98.30;;;;;;5068495;28;19933;-69
2022/01/28 03:14:16;;;;;;;;;;;2.60;98.30;;;;;;5050549;28;19935;-69
2022/01/28 03:16:59;;;;;;;;;;;2.60;98.30;;;;;;5062410;28;20388;-70
2022/01/28 03:19:29;;;;;;;;;;;2.60;98.30;;;;;;5068109;28;19928;-69
2022/01/28 03:21:56;;;;;;;;;;;2.60;98.30;;;;;;5067205;28;20035;-70
2022/01/28 03:24:23;;;;;;;;;;;2.60;98.30;;;;;;5066025;28;20137;-69
2022/01/28 03:26:54;;;;;;;;;;;2.60;98.30;;;;;;5060154;28;20408;-69
2022/01/28 03:29:21;;;;;;;;;;;2.60;98.30;;;;;;5068774;28;20438;-69
2022/01/28 03:31:48;;;;;;;;;;;2.60;98.30;;;;;;5070215;28;20804;-70
2022/01/28 03:34:14;;;;;;;;;;;2.60;98.30;;;;;;5065402;28;19928;-69
2022/01/28 03:36:41;;;;;;;;;;;2.60;98.30;;;;;;5069749;28;19986;-70
2022/01/28 03:39:09;;;;;;;;;;;2.60;98.20;;;;;;5071347;28;19998;-69
2022/01/28 03:41:36;;;;;;;;;;;2.60;98.20;;;;;;5064285;28;19936;-69
2022/01/28 03:44:04;;;;;;;;;;;2.60;98.20;;;;;;5071171;28;19928;-70
2022/01/28 03:46:31;;;;;;;;;;;2.60;98.20;;;;;;5066390;28;19932;-69
2022/01/28 03:48:58;;;;;;;;;;;2.60;98.20;;;;;;5064674;28;20715;-67
2022/01/28 03:51:24;;;;;;;;;;;2.60;98.20;;;;;;5066264;28;19932;-69
2022/01/28 03:53:51;;;;;;;;;;;2.60;98.20;;;;;;5063142;28;19935;-70
2022/01/28 03:56:17;;;;;;;;;;;2.60;98.20;;;;;;5068979;28;19981;-68
2022/01/28 03:58:44;;;;;;;;;;;2.60;98.30;;;;;;5067080;28;19932;-68
2022/01/28 04:01:16;;;;;;;;;;;2.60;98.30;;;;;;5059995;28;19938;-69
2022/01/28 04:03:59;;;;;;;;;;;2.60;98.30;;;;;;5059768;28;19936;-68
2022/01/28 04:12:03;;;;;;;;;;;2.60;98.30;;;;;;5067735;28;19943;-69
2022/01/28 04:14:39;;;;;;;;;;;2.60;98.30;;;;;;5066559;28;20033;-68
2022/01/28 04:17:20;;;;;;;;;;;2.60;98.30;;;;;;5072073;28;21007;-69
2022/01/28 04:19:47;;;;;;;;;;;2.60;98.30;;;;;;5060410;28;19928;-67
2022/01/28 04:22:14;;;;;;;;;;;2.60;98.30;;;;;;5063405;28;20074;-68
2022/01/28 04:24:40;;;;;;;;;;;2.60;98.30;;;;;;5060410;28;19929;-68
2022/01/28 04:27:07;;;;;;;;;;;2.60;98.40;;;;;;5063418;28;20749;-70
2022/01/28 04:29:33;;;;;;;;;;;2.60;98.30;;;;;;5067539;28;19936;-69
2022/01/28 04:32:00;;;;;;;;;;;2.60;98.40;;;;;;5069802;28;20372;-69
2022/01/28 04:34:28;;;;;;;;;;;2.60;98.40;;;;;;5065915;28;19995;-68
2022/01/28 04:37:03;;;;;;;;;;;2.60;98.40;;;;;;5067633;28;20339;-69
2022/01/28 04:39:37;;;;;;;;;;;2.60;98.50;;;;;;5065529;28;19942;-69
2022/01/28 04:42:13;;;;;;;;;;;2.60;98.50;;;;;;5064148;28;20136;-69
2022/01/28 04:44:50;;;;;;;;;;;2.60;98.60;;;;;;5063983;28;19929;-68
2022/01/28 04:47:23;;;;;;;;;;;2.60;98.60;;;;;;5064851;28;19932;-70
2022/01/28 04:50:00;;;;;;;;;;;2.60;98.60;;;;;;5063090;28;19929;-68
2022/01/28 04:55:21;;;;;;;;;;;2.60;98.60;;;;;;5061893;28;20082;-68
2022/01/28 04:58:02;;;;;;;;;;;2.60;98.60;;;;;;5066183;28;19925;-70
2022/01/28 05:00:31;;;;;;;;;;;2.60;98.60;;;;;;5066544;28;19928;-68
2022/01/28 05:03:13;;;;;;;;;;;2.60;98.60;;;;;;5064080;28;20028;-68
2022/01/28 05:08:55;;;;;;;;;;;2.60;98.60;;;;;;5063486;28;20033;-68
2022/01/28 05:11:41;;;;;;;;;;;2.60;98.50;;;;;;5065450;28;19928;-68
2022/01/28 05:14:40;;;;;;;;;;;2.50;98.50;;;;;;5066524;28;19928;-68
2022/01/28 05:28:05;;;;;;;;;;;2.50;98.60;;;;;;5066109;28;19935;-68
2022/01/28 05:30:32;;;;;;;;;;;2.50;98.60;;;;;;5070237;28;19932;-68
2022/01/28 05:32:58;;;;;;;;;;;2.50;98.70;;;;;;5061954;28;20461;-67
2022/01/28 05:35:27;;;;;;;;;;;2.50;98.70;;;;;;5068216;28;19932;-69
2022/01/28 05:37:54;;;;;;;;;;;2.50;98.70;;;;;;5066807;28;19932;-68
2022/01/28 05:40:21;;;;;;;;;;;2.50;98.70;;;;;;5066319;28;20392;-68
2022/01/28 05:42:47;;;;;;;;;;;2.50;98.70;;;;;;5064974;28;20011;-68
2022/01/28 05:45:14;;;;;;;;;;;2.50;98.70;;;;;;5067269;28;19928;-68
2022/01/28 05:47:40;;;;;;;;;;;2.50;98.80;;;;;;5068090;28;20305;-70
2022/01/28 05:50:08;;;;;;;;;;;2.50;98.80;;;;;;5066746;28;19978;-70
2022/01/28 05:52:34;;;;;;;;;;;2.50;98.80;;;;;;5062500;28;19935;-71
2022/01/28 05:55:02;;;;;;;;;;;2.50;98.80;;;;;;5063547;28;19924;-69
2022/01/28 05:57:29;;;;;;;;;;;2.50;98.80;;;;;;5065477;28;20300;-70
2022/01/28 05:59:55;;;;;;;;;;;2.50;98.80;;;;;;5071794;28;19928;-67
2022/01/28 06:02:22;;;;;;;;;;;2.50;98.90;;;;;;5061522;28;20304;-68
2022/01/28 06:04:49;;;;;;;;;;;2.50;98.90;;;;;;5067431;28;19931;-67
2022/01/28 06:07:15;;;;;;;;;;;2.50;98.90;;;;;;5066593;28;19969;-70
2022/01/28 06:09:42;;;;;;;;;;;2.50;98.90;;;;;;5071325;28;19928;-68
2022/01/28 06:12:10;;;;;;;;;;;2.50;98.90;;;;;;5063050;28;21548;-66
2022/01/28 06:14:37;;;;;;;;;;;2.50;98.90;;;;;;5073715;28;19932;-70
2022/01/28 06:17:03;;;;;;;;;;;2.50;98.90;;;;;;5063503;28;19990;-71
2022/01/28 06:19:30;;;;;;;;;;;2.60;99.00;;;;;;5065605;28;20301;-69
2022/01/28 06:21:57;;;;;;;;;;;2.50;98.90;;;;;;5068652;28;19963;-68
2022/01/28 06:24:23;;;;;;;;;;;2.50;98.90;;;;;;5063378;28;20650;-70
2022/01/28 06:26:50;;;;;;;;;;;2.50;98.90;;;;;;5073682;28;19936;-68
2022/01/28 06:29:17;;;;;;;;;;;2.50;98.90;;;;;;5065944;28;19932;-69
2022/01/28 06:31:44;;;;;;;;;;;2.50;98.90;;;;;;5067905;28;19928;-68
2022/01/28 06:34:10;;;;;;;;;;;2.60;98.90;;;;;;5070165;28;19932;-68
2022/01/28 06:36:37;;;;;;;;;;;2.50;98.70;;;;;;5067901;28;19994;-71
2022/01/28 06:39:04;;;;;;;;;;;2.50;98.90;;;;;;5065077;28;19983;-69
2022/01/28 06:41:31;;;;;;;;;;;2.60;98.90;;;;;;5064541;28;19972;-68
2022/01/28 06:43:57;;;;;;;;;;;2.60;99.00;;;;;;5070611;28;20114;-70
2022/01/28 06:46:26;;;;;;;;;;;2.60;99.00;;;;;;5067121;28;20320;-68
2022/01/28 06:48:52;;;;;;;;;;;2.60;99.00;;;;;;5064751;28;19934;-68
2022/01/28 06:51:19;;;;;;;;;;;2.60;99.00;;;;;;5067589;28;19933;-68
2022/01/28 06:53:45;;;;;;;;;;;2.60;99.00;;;;;;5063802;28;20281;-68
2022/01/28 06:56:12;;;;;;;;;;;2.60;99.10;;;;;;5071127;28;19959;-68
2022/01/28 06:58:38;;;;;;;;;;;2.60;99.10;;;;;;5070398;28;19928;-68
2022/01/28 07:01:05;;;;;;;;;;;2.60;99.10;;;;;;5071934;28;19932;-70
2022/01/28 07:03:33;;;;;;;;;;;2.60;99.10;;;;;;5065701;28;19993;-67
2022/01/28 07:05:59;;;;;;;;;;;2.60;99.10;;;;;;5068814;28;19931;-69
2022/01/28 07:08:28;;;;;;;;;;;2.60;99.10;;;;;;5073600;28;19928;-68
2022/01/28 07:10:54;;;;;;;;;;;2.60;99.10;;;;;;5068386;28;20253;-69
2022/01/28 07:13:21;;;;;;;;;;;2.60;99.10;;;;;;5072120;28;19928;-68
2022/01/28 07:15:48;;;;;;;;;;;2.60;99.10;;;;;;5062586;28;20010;-68
2022/01/28 07:18:14;;;;;;;;;;;2.60;99.10;;;;;;5063981;28;19967;-69
2022/01/28 07:20:42;;;;;;;;;;;2.60;99.10;;;;;;5066166;28;19981;-68
2022/01/28 07:23:09;;;;;;;;;;;2.60;99.10;;;;;;5061118;28;19971;-68
2022/01/28 07:25:35;;;;;;;;;;;2.60;99.10;;;;;;5066453;28;20289;-68
2022/01/28 07:28:02;;;;;;;;;;;2.60;99.00;;;;;;5064277;28;19933;-68
2022/01/28 07:30:28;;;;;;;;;;;2.60;99.10;;;;;;5065439;28;19928;-69
2022/01/28 07:32:55;;;;;;;;;;;2.60;99.00;;;;;;5062172;28;19928;-68
2022/01/28 07:35:21;;;;;;;;;;;2.60;99.10;;;;;;5063986;28;20347;-68
2022/01/28 07:37:49;;;;;;;;;;;2.60;99.10;;;;;;5062020;28;19936;-68
2022/01/28 07:40:16;;;;;;;;;;;2.60;99.10;;;;;;5065657;28;19928;-69
2022/01/28 07:42:43;;;;;;;;;;;2.60;99.10;;;;;;5070287;28;19924;-69
2022/01/28 07:45:11;;;;;;;;;;;2.60;99.10;;;;;;5063101;28;19932;-68
2022/01/28 07:47:38;;;;;;;;;;;2.70;99.50;;;;;;5065508;28;19932;-69
2022/01/28 07:50:05;;;;;;;;;;;2.80;99.70;;;;;;5063140;28;19974;-71
2022/01/28 07:52:31;;;;;;;;;;;2.70;99.70;;;;;;5064267;28;19935;-69
2022/01/28 07:54:59;;;;;;;;;;;2.70;99.70;;;;;;5063726;28;19936;-69
2022/01/28 07:57:26;;;;;;;;;;;2.70;99.70;;;;;;5063979;28;20376;-69
2022/01/28 07:59:53;;;;;;;;;;;2.70;99.70;;;;;;5075364;28;20403;-69
2022/01/28 08:02:19;;;;;;;;;;;2.70;99.70;;;;;;5065088;28;20637;-69
2022/01/28 08:04:46;;;;;;;;;;;2.70;99.60;;;;;;5060551;28;19958;-74
2022/01/28 08:07:12;;;;;;;;;;;2.70;99.60;;;;;;5068727;28;20396;-70
2022/01/28 08:09:39;;;;;;;;;;;2.70;99.60;;;;;;5077275;28;19935;-71
2022/01/28 08:12:07;;;;;;;;;;;2.70;99.60;;;;;;5071727;28;19986;-69
2022/01/28 08:14:34;;;;;;;;;;;2.70;99.50;;;;;;5075086;28;19932;-71
2022/01/28 08:17:00;;;;;;;;;;;2.70;99.50;;;;;;5075758;28;19928;-70
2022/01/28 08:19:27;;;;;;;;;;;2.70;99.50;;;;;;5066625;28;19929;-69
2022/01/28 08:21:53;;;;;;;;;;;2.70;99.40;;;;;;5069786;28;19991;-69
2022/01/28 08:24:20;;;;;;;;;;;2.70;99.40;;;;;;5063973;28;19936;-70
2022/01/28 08:26:47;;;;;;;;;;;2.70;99.40;;;;;;5075031;28;19928;-68
2022/01/28 08:29:15;;;;;;;;;;;2.70;99.40;;;;;;5069397;28;19928;-69
2022/01/28 08:31:41;;;;;;;;;;;2.70;99.40;;;;;;5074979;28;19973;-69
2022/01/28 08:34:08;;;;;;;;;;;2.70;99.40;;;;;;5064475;28;19928;-70
2022/01/28 08:36:35;;;;;;;;;;;2.70;99.40;;;;;;5067462;28;20439;-70
2022/01/28 08:39:04;;;;;;;;;;;2.80;99.40;;;;;;5068550;28;19935;-68
2022/01/28 08:41:31;;;;;;;;;;;2.70;99.40;;;;;;5066369;28;20353;-70
2022/01/28 08:43:58;;;;;;;;;;;2.70;99.40;;;;;;5065313;28;19933;-69
2022/01/28 08:46:26;;;;;;;;;;;2.80;99.40;;;;;;5068880;28;19932;-69
2022/01/28 08:48:52;;;;;;;;;;;2.80;99.40;;;;;;5067216;28;19928;-69
2022/01/28 08:51:19;;;;;;;;;;;2.80;99.40;;;;;;5068157;28;20407;-70
2022/01/28 08:53:45;;;;;;;;;;;2.80;99.40;;;;;;5065823;28;19936;-69
2022/01/28 08:56:12;;;;;;;;;;;2.80;99.30;;;;;;5067114;28;19940;-71
2022/01/28 08:58:38;;;;;;;;;;;2.80;99.30;;;;;;5065423;28;19932;-70
2022/01/28 09:01:05;;;;;;;;;;;2.80;99.30;;;;;;5071496;28;19981;-68
2022/01/28 09:03:33;;;;;;;;;;;2.80;99.30;;;;;;5065475;28;19950;-69
2022/01/28 09:06:00;;;;;;;;;;;2.90;99.20;;;;;;5071111;28;19932;-69
2022/01/28 09:08:26;;;;;;;;;;;2.80;99.10;;;;;;5069950;28;20401;-70
2022/01/28 09:11:08;;;;;;;;;;;2.90;99.10;;;;;;5067349;28;19938;-71
2022/01/28 09:13:38;;;;;;;;;;;2.90;99.10;;;;;;5064147;28;19935;-71
2022/01/28 09:16:05;;;;;;;;;;;2.90;99.00;;;;;;5068888;28;19960;-70
2022/01/28 09:18:33;;;;;;;;;;;2.90;99.00;;;;;;5070246;28;19929;-70
2022/01/28 09:20:59;;;;;;;;;;;2.90;99.00;;;;;;5065633;28;19932;-71
2022/01/28 09:23:26;;;;;;;;;;;2.90;98.90;;;;;;5068274;28;19932;-69
2022/01/28 09:25:53;;;;;;;;;;;2.90;98.90;;;;;;5067528;28;20730;-70
2022/01/28 09:28:19;;;;;;;;;;;3.00;98.90;;;;;;5064941;28;19933;-69
2022/01/28 09:30:46;;;;;;;;;;;3.00;98.90;;;;;;5071175;28;19925;-72
2022/01/28 09:33:12;;;;;;;;;;;3.00;98.90;;;;;;5065267;28;20339;-71
2022/01/28 09:35:41;;;;;;;;;;;3.00;98.90;;;;;;5066757;28;19982;-70
2022/01/28 09:38:08;;;;;;;;;;;3.00;98.80;;;;;;5069888;28;20433;-69
2022/01/28 09:40:35;;;;;;;;;;;3.00;98.80;;;;;;5063976;28;20278;-71
2022/01/28 09:43:04;;;;;;;;;;;3.00;98.80;;;;;;5075134;28;19932;-69
2022/01/28 09:45:31;;;;;;;;;;;3.00;98.80;;;;;;5068561;28;19943;-71
2022/01/28 09:47:58;;;;;;;;;;;3.00;98.80;;;;;;5075615;28;19936;-70
2022/01/28 09:50:26;;;;;;;;;;;3.10;98.90;;;;;;5069122;28;20477;-70
2022/01/28 09:52:54;;;;;;;;;;;3.10;98.90;;;;;;5067617;28;19936;-71
2022/01/28 09:55:22;;;;;;;;;;;3.10;98.80;;;;;;5066394;28;19928;-69
2022/01/28 09:57:51;;;;;;;;;;;3.10;98.80;;;;;;5065666;28;19929;-69
2022/01/28 10:00:20;;;;;;;;;;;3.10;98.80;;;;;;5066207;28;19932;-70
2022/01/28 10:02:47;;;;;;;;;;;3.10;98.80;;;;;;5061450;28;20418;-70
2022/01/28 10:05:18;;;;;;;;;;;3.10;98.70;;;;;;5073030;28;20713;-71
2022/01/28 10:08:00;;;;;;;;;;;3.20;98.70;;;;;;5066537;28;20430;-70
2022/01/28 10:10:26;;;;;;;;;;;3.20;98.70;;;;;;5063835;28;19933;-70
2022/01/28 10:13:08;;;;;;;;;;;3.20;98.70;;;;;;5067275;28;20327;-70
2022/01/28 10:15:35;;;;;;;;;;;3.20;98.70;;;;;;5064977;28;20313;-70
2022/01/28 10:18:01;;;;;;;;;;;3.20;98.60;;;;;;5067920;28;19928;-70
2022/01/28 10:20:28;;;;;;;;;;;3.20;98.60;;;;;;5062038;28;19977;-70
2022/01/28 10:22:55;;;;;;;;;;;3.20;98.60;;;;;;5063986;28;20019;-69
2022/01/28 10:25:24;;;;;;;;;;;3.30;98.60;;;;;;5061411;28;20011;-69
2022/01/28 10:27:58;;;;;;;;;;;3.30;98.60;;;;;;5063987;28;19975;-69
2022/01/28 10:30:24;;;;;;;;;;;3.30;98.60;;;;;;5063693;28;19937;-69
2022/01/28 10:33:05;;;;;;;;;;;3.30;98.60;;;;;;5064565;28;19929;-70
2022/01/28 10:35:32;;;;;;;;;;;3.30;98.60;;;;;;5068465;28;19974;-71
2022/01/28 10:37:59;;;;;;;;;;;3.30;98.60;;;;;;5066239;28;19932;-68
2022/01/28 10:40:27;;;;;;;;;;;3.30;98.60;;;;;;5067002;28;20368;-68
2022/01/28 10:42:53;;;;;;;;;;;3.40;98.60;;;;;;5063794;28;20014;-70
2022/01/28 10:45:21;;;;;;;;;;;3.40;98.60;;;;;;5065030;28;19932;-72
2022/01/28 10:47:49;;;;;;;;;;;3.40;98.60;;;;;;5064423;28;19932;-68
2022/01/28 10:50:17;;;;;;;;;;;3.40;98.60;;;;;;5064925;28;19928;-70
2022/01/28 10:52:44;;;;;;;;;;;3.40;98.60;;;;;;5066604;28;19928;-71
2022/01/28 10:55:15;;;;;;;;;;;3.50;98.60;;;;;;5062163;28;20002;-69
2022/01/28 10:57:55;;;;;;;;;;;3.50;98.60;;;;;;5067693;28;19955;-68
2022/01/28 11:00:21;;;;;;;;;;;3.60;98.50;;;;;;5060303;28;19929;-71
2022/01/28 11:02:48;;;;;;;;;;;3.70;98.40;;;;;;5064319;28;19936;-71
2022/01/28 11:05:15;;;;;;;;;;;3.80;98.30;;;;;;5064872;28;19990;-69
2022/01/28 11:07:42;;;;;;;;;;;3.70;98.20;;;;;;5064011;28;19995;-70
2022/01/28 11:10:08;;;;;;;;;;;3.80;98.10;;;;;;5068026;28;19924;-71
2022/01/28 11:12:35;;;;;;;;;;;3.80;98.10;;;;;;5061677;28;20400;-68
2022/01/28 11:15:03;;;;;;;;;;;3.90;98.00;;;;;;5067033;28;19939;-69
2022/01/28 11:17:30;;;;;;;;;;;3.90;98.20;;;;;;5064504;28;19932;-71
2022/01/28 11:19:58;;;;;;;;;;;3.90;97.90;;;;;;5065996;28;19932;-68
2022/01/28 11:22:34;;;;;;;;;;;3.90;97.80;;;;;;5060920;28;19940;-70
2022/01/28 11:25:16;;;;;;;;;;;4.00;97.80;;;;;;5063609;28;19932;-69
2022/01/28 11:27:47;;;;;;;;;;;4.00;97.80;;;;;;5062403;28;19928;-71
2022/01/28 11:30:16;;;;;;;;;;;4.00;97.80;;;;;;5066260;28;19932;-70
2022/01/28 11:32:52;;;;;;;;;;;4.10;97.70;;;;;;5063013;28;19975;-69
2022/01/28 11:35:19;;;;;;;;;;;4.10;97.70;;;;;;5065561;28;19935;-68
2022/01/28 11:37:46;;;;;;;;;;;4.10;97.70;;;;;;5060519;28;19990;-71
2022/01/28 11:40:14;;;;;;;;;;;4.10;97.60;;;;;;5062271;28;19925;-68
2022/01/28 11:42:40;;;;;;;;;;;4.20;97.60;;;;;;5066127;28;20524;-69
2022/01/28 11:45:08;;;;;;;;;;;4.20;97.50;;;;;;5069891;28;19951;-70
2022/01/28 11:47:36;;;;;;;;;;;4.20;97.50;;;;;;5066059;28;19928;-70
2022/01/28 11:50:06;;;;;;;;;;;4.30;97.40;;;;;;5074988;28;19932;-69
2022/01/28 11:52:34;;;;;;;;;;;4.30;97.40;;;;;;5075746;28;19989;-71
2022/01/28 11:55:30;;;;;;;;;;;4.30;97.40;;;;;;5074790;28;19950;-69
2022/01/28 11:57:58;;;;;;;;;;;4.30;97.50;;;;;;5067223;28;19936;-67
2022/01/28 12:00:27;;;;;;;;;;;4.30;97.30;;;;;;5067729;28;20354;-70
2022/01/28 12:02:55;;;;;;;;;;;4.30;97.30;;;;;;5064053;28;19932;-69
2022/01/28 12:05:25;;;;;;;;;;;4.30;97.30;;;;;;5059907;28;20009;-70
2022/01/28 12:07:53;;;;;;;;;;;4.30;97.30;;;;;;5059579;28;19958;-69
2022/01/28 12:10:20;;;;;;;;;;;4.30;97.40;;;;;;5060184;28;19996;-70
2022/01/28 12:12:56;;;;;;;;;;;4.30;97.40;;;;;;5063441;28;19932;-71
2022/01/28 12:15:23;;;;;;;;;;;4.30;97.40;;;;;;5062499;28;20585;-71
2022/01/28 12:17:51;;;;;;;;;;;4.30;97.40;;;;;;5061939;28;20392;-70
2022/01/28 12:20:35;;;;;;;;;;;4.30;97.40;;;;;;5062105;28;20376;-68
2022/01/28 12:23:02;;;;;;;;;;;4.30;97.50;;;;;;5065901;28;20291;-69
2022/01/28 12:25:43;;;;;;;;;;;4.30;97.50;;;;;;5064198;28;19932;-70
2022/01/28 12:28:13;;;;;;;;;;;4.30;97.50;;;;;;5057876;28;20450;-69
2022/01/28 12:30:43;;;;;;;;;;;4.30;97.50;;;;;;5061400;28;21234;-71
2022/01/28 12:33:10;;;;;;;;;;;4.30;97.50;;;;;;5058847;28;19939;-71
2022/01/28 12:35:38;;;;;;;;;;;4.40;97.50;;;;;;5064138;28;19938;-69
2022/01/28 12:38:05;;;;;;;;;;;4.40;97.40;;;;;;5065213;28;19928;-71
2022/01/28 12:40:36;;;;;;;;;;;4.50;97.40;;;;;;5060974;28;19935;-70
2022/01/28 12:43:03;;;;;;;;;;;4.50;97.30;;;;;;5064198;28;19936;-68
2022/01/28 12:45:30;;;;;;;;;;;4.50;97.20;;;;;;5061213;28;19993;-69
2022/01/28 12:47:56;;;;;;;;;;;4.60;97.10;;;;;;5061181;28;19958;-69
2022/01/28 12:50:24;;;;;;;;;;;4.60;97.00;;;;;;5061593;28;19940;-70
2022/01/28 12:52:52;;;;;;;;;;;4.70;96.90;;;;;;5062602;28;19955;-71
2022/01/28 12:55:18;;;;;;;;;;;4.80;96.80;;;;;;5063936;28;19928;-67
2022/01/28 12:57:46;;;;;;;;;;;4.80;96.70;;;;;;5065312;28;19958;-68
2022/01/28 13:00:14;;;;;;;;;;;4.80;96.60;;;;;;5061600;28;19928;-69
2022/01/28 13:02:42;;;;;;;;;;;4.90;96.50;;;;;;5058613;28;19928;-70
2022/01/28 13:05:15;;;;;;;;;;;4.90;96.30;;;;;;5064003;28;20307;-68
2022/01/28 13:10:29;;;;;;;;;;;5.00;96.00;;;;;;5067524;28;19932;-70
2022/01/28 13:13:03;;;;;;;;;;;5.10;95.90;;;;;;5062260;28;19936;-69
2022/01/28 13:15:29;;;;;;;;;;;5.10;95.70;;;;;;5061303;28;20360;-69
2022/01/28 13:17:56;;;;;;;;;;;5.20;95.50;;;;;;5059096;28;19935;-69
2022/01/28 13:20:24;;;;;;;;;;;5.20;95.80;;;;;;5066451;28;19935;-69
2022/01/28 13:22:51;;;;;;;;;;;5.20;95.40;;;;;;5068349;28;19925;-71
2022/01/28 13:25:19;;;;;;;;;;;5.30;95.30;;;;;;5061768;28;20376;-68
2022/01/28 13:27:49;;;;;;;;;;;5.30;95.20;;;;;;5058774;28;20535;-69
2022/01/28 13:30:18;;;;;;;;;;;5.30;95.30;;;;;;5061885;28;19936;-70
2022/01/28 13:32:46;;;;;;;;;;;5.30;95.30;;;;;;5061637;28;19928;-70
2022/01/28 13:35:14;;;;;;;;;;;5.30;95.30;;;;;;5065785;28;19977;-69
2022/01/28 13:37:42;;;;;;;;;;;5.30;95.30;;;;;;5062346;28;20035;-73
2022/01/28 13:40:09;;;;;;;;;;;5.30;95.10;;;;;;5063874;28;19951;-69
2022/01/28 13:42:37;;;;;;;;;;;5.20;95.20;;;;;;5071044;28;20497;-69
2022/01/28 13:45:07;;;;;;;;;;;5.20;95.00;;;;;;5074287;28;19935;-71
2022/01/28 13:47:53;;;;;;;;;;;5.20;95.00;;;;;;5061519;28;19929;-70
2022/01/28 13:50:23;;;;;;;;;;;5.20;95.20;;;;;;5064471;28;19982;-70
2022/01/28 13:52:53;;;;;;;;;;;5.20;95.30;;;;;;5061508;28;19936;-69
2022/01/28 13:55:33;;;;;;;;;;;5.20;95.30;;;;;;5071768;28;19933;-71
2022/01/28 13:58:02;;;;;;;;;;;5.20;95.30;;;;;;5068860;28;19935;-68
2022/01/28 14:00:37;;;;;;;;;;;5.10;95.30;;;;;;5069769;28;20405;-68
2022/01/28 14:03:04;;;;;;;;;;;5.20;95.30;;;;;;5062551;28;19932;-69
2022/01/28 14:05:45;;;;;;;;;;;5.20;95.20;;;;;;5068724;28;19936;-68
2022/01/28 14:08:12;;;;;;;;;;;5.20;95.20;;;;;;5063474;28;19932;-69
2022/01/28 14:10:38;;;;;;;;;;;5.10;95.20;;;;;;5067863;28;19924;-68
2022/01/28 14:13:19;;;;;;;;;;;5.10;95.20;;;;;;5059845;28;20429;-68
2022/01/28 14:16:01;;;;;;;;;;;5.20;95.20;;;;;;5067363;28;19960;-71
2022/01/28 14:18:27;;;;;;;;;;;5.20;95.20;;;;;;5060898;28;19931;-71
2022/01/28 14:20:54;;;;;;;;;;;5.20;95.10;;;;;;5071997;28;20647;-68
2022/01/28 14:23:20;;;;;;;;;;;5.20;95.10;;;;;;5066983;28;19932;-69
2022/01/28 14:25:47;;;;;;;;;;;5.20;95.10;;;;;;5065814;28;19982;-70
2022/01/28 14:28:36;;;;;;;;;;;5.20;95.10;;;;;;5067372;28;19932;-69
2022/01/28 14:31:08;;;;;;;;;;;5.20;95.10;;;;;;5067671;28;19934;-69
2022/01/28 14:33:35;;;;;;;;;;;5.20;95.40;;;;;;5061358;28;19928;-70
2022/01/28 14:36:02;;;;;;;;;;;5.30;95.10;;;;;;5067733;28;19928;-69
2022/01/28 14:38:28;;;;;;;;;;;5.20;95.00;;;;;;5066248;28;19973;-69
2022/01/28 14:40:55;;;;;;;;;;;5.20;95.10;;;;;;5071473;28;19954;-68
2022/01/28 14:43:21;;;;;;;;;;;5.30;95.20;;;;;;5067131;28;19981;-70
2022/01/28 14:45:48;;;;;;;;;;;5.30;95.00;;;;;;5071165;28;19924;-68
2022/01/28 14:48:20;;;;;;;;;;;5.30;95.00;;;;;;5066226;28;19931;-70
2022/01/28 14:50:47;;;;;;;;;;;5.30;95.00;;;;;;5069882;28;19947;-68
2022/01/28 14:53:14;;;;;;;;;;;5.30;94.90;;;;;;5063675;28;19955;-69
2022/01/28 14:55:42;;;;;;;;;;;5.30;94.90;;;;;;5065526;28;19940;-68
2022/01/28 14:58:09;;;;;;;;;;;5.30;94.80;;;;;;5063937;28;20419;-68
2022/01/28 15:00:36;;;;;;;;;;;5.30;94.80;;;;;;5064989;28;19928;-69
2022/01/28 15:03:02;;;;;;;;;;;5.30;94.80;;;;;;5067169;28;20344;-68
2022/01/28 15:05:30;;;;;;;;;;;5.30;94.80;;;;;;5067509;28;19933;-69
2022/01/28 15:07:57;;;;;;;;;;;5.30;94.80;;;;;;5068473;28;19928;-71
2022/01/28 15:10:28;;;;;;;;;;;5.30;94.80;;;;;;5065030;28;19937;-69
2022/01/28 15:12:54;;;;;;;;;;;5.30;94.80;;;;;;5062670;28;19982;-69
2022/01/28 15:15:21;;;;;;;;;;;5.30;94.70;;;;;;5069690;28;19950;-69
2022/01/28 15:17:47;;;;;;;;;;;5.30;94.70;;;;;;5065702;28;19933;-69
2022/01/28 15:20:14;;;;;;;;;;;5.30;94.70;;;;;;5067160;28;19932;-68
2022/01/28 15:22:42;;;;;;;;;;;5.30;94.60;;;;;;5064299;28;19939;-69
2022/01/28 15:25:09;;;;;;;;;;;5.30;94.60;;;;;;5067181;28;19929;-68
2022/01/28 15:27:36;;;;;;;;;;;5.30;94.60;;;;;;5066276;28;19990;-67
2022/01/28 15:30:05;;;;;;;;;;;5.30;94.70;;;;;;5069558;28;19932;-70
2022/01/28 15:38:02;;;;;;;;;;;5.30;94.60;;;;;;5064989;28;19955;-72